• Join FlightAware (Why Join?)
  • Login
  • US Flag 
12:18PM EDT


 

Airport Tracker/Info


-or-


 

Live Flight TrackerFlight Track Log ✈ UAL341 ✈ 01-May-2013 ✈ KDEN - KICT

Flight Track Log - Related Links

Times and Time Zones

All times are in EDT time to prevent confusion due to time zone crossing. See the UAL341 flight status page for this flight to view local times or setup timezone preferences in your user account.

Time Position Orientation Groundspeed Altitude Reporting Facility
EDT Latitude Longitude Course Direction KTS MPH feet Rate Location/Type
10:44PM 39.9167 -104.6500 116° Southeast 179 206 7,600  Level Denver TRACON
10:45PM 39.8833 -104.5833 123° Southeast 234 269 10,000 1,860 Climbing Denver TRACON
10:46PM 39.7598 -104.2927 108° East  Level Estimated
10:46PM 39.8528 -104.5008 116° Southeast 280 322 11,300  Level Denver Center
10:47PM 39.7146 -104.1721 116° Southeast  Level FlightAware Approximate
10:47PM 39.8092 -104.3928 118° Southeast 331 381 13,700  Level Denver Center
10:48PM 39.6804 -104.0456 108° East  Level Estimated
10:48PM 39.7644 -104.2650 114° Southeast 361 415 16,800  Level Denver Center
10:49PM 39.6461 -103.9192 116° Southeast  Level Estimated
10:49PM 39.7236 -104.1461 114° Southeast 363 418 18,700  Level Denver Center
10:50PM 39.6786 -104.0222 115° Southeast 379 436 20,800 2,760 Climbing Denver Center
10:51PM 39.6275 -103.8844 116° Southeast 395 455 24,400 3,000 Climbing Denver Center
10:52PM 39.5786 -103.7575 117° Southeast 391 450 27,000 1,800 Climbing Denver Center
10:53PM 39.5442 -103.6175 108° East 400 460 28,100 960 Climbing Denver Center
10:54PM 39.5031 -103.4675 110° East 435 501 29,000 900 Climbing Denver Center
10:55PM 39.4606 -103.3103 109° East 457 526 30,000 1,020 Climbing Denver Center
10:56PM 39.4169 -103.1464 109° East 476 548 31,200 960 Climbing Denver Center
10:57PM 39.3731 -102.9806 109° East 483 556 32,000 360 Climbing Denver Center
10:58PM 39.3269 -102.8131 110° East 490 564 32,000  Level Denver Center
10:59PM 39.2764 -102.6300 110° East 492 566 32,000  Level Denver Center
11:00PM 39.2319 -102.4697 110° East 495 570 32,000  Level Denver Center
11:01PM 39.1869 -102.3100 110° East 494 568 32,000 180 Level Denver Center
11:02PM 39.1353 -102.1239 110° East 493 567 32,400 480 Climbing Denver Center
11:03PM 39.0917 -101.9658 110° East 487 560 33,000 780 Climbing Denver Center
11:04PM 39.0461 -101.8097 111° Southeast 486 559 34,000 960 Climbing Denver Center
11:05PM 38.9972 -101.6364 110° East 462 532 35,000 480 Climbing Denver Center
11:06PM 38.9556 -101.4906 110° East 455 524 35,000  Level Denver Center
11:07PM 38.9061 -101.3186 110° East 459 528 35,000  Level Denver Center
11:08PM 38.8628 -101.1725 111° Southeast 457 526 35,000  Level Denver Center
11:09PM 38.8197 -101.0247 110° East 461 531 35,000  Level Denver Center
11:10PM 38.7692 -100.8517 110° East 464 534 35,000  Level Denver Center
11:11PM 38.7244 -100.7011 111° Southeast 469 540 35,000 -600 Level Denver Center
11:12PM 38.6728 -100.5278 111° Southeast 467 537 33,900 -1,020 Descending Denver Center
11:13PM 38.6292 -100.3806 111° Southeast 463 533 33,000 -480 Descending Denver Center
11:14PM 38.5828 -100.2281 111° Southeast 474 545 33,000  Level Denver Center
11:15PM 38.5292 -100.0511 111° Southeast 477 549 33,000  Level Denver Center
11:16PM 38.4836 -99.9022 111° Southeast 471 542 33,000  Level Denver Center
11:17PM 38.4522 -99.8017 112° Southeast 471 542 33,000  Level Kansas City Center
11:18PM 38.4056 -99.6525 112° Southeast 471 542 33,000  Level Kansas City Center
11:19PM 38.3625 -99.5044 110° East 469 540 33,000 540 Level Kansas City Center
11:20PM 38.3469 -99.3358 97° East 477 549 34,100 1,320 Climbing Kansas City Center
11:21PM 38.3331 -99.1675 96° East 480 552 35,800 1,380 Climbing Kansas City Center
11:22PM 38.3203 -99.0042 96° East 469 540 37,000 540 Climbing Kansas City Center
11:23PM 38.3103 -98.8422 94° East 462 532 37,000  Level Kansas City Center
11:24PM 38.2989 -98.6775 95° East 466 536 37,000  Level Kansas City Center
11:25PM 38.2803 -98.5183 98° East 455 524 37,000  Level Kansas City Center
11:26PM 38.2614 -98.3258 97° East 456 525 37,000  Level Kansas City Center
11:27PM 38.2489 -98.1633 96° East 458 527 37,000  Level Kansas City Center
11:28PM 38.2450 -97.9967 92° East 467 537 37,000  Level Kansas City Center
11:29PM 38.2478 -97.8306 89° East 464 534 37,000  Level Kansas City Center
11:30PM 38.2486 -97.6633 90° East 468 539 37,000  Level Kansas City Center
11:31PM 38.2489 -97.4956 90° East 470 541 37,000  Level Kansas City Center
11:32PM 38.2486 -97.3261 90° East 476 548 37,000 -1,800 Level Kansas City Center
11:33PM 38.2200 -97.1689 103° East 460 529 33,400 -4,380 Descending Kansas City Center
11:34PM 38.1364 -97.0397 129° Southeast 473 544 28,100 -4,560 Descending Kansas City Center
11:35PM 38.0289 -96.9694 153° Southeast 436 502 24,200 -4,140 Descending Kansas City Center
11:36PM 37.9814 -96.9658 177° South 404 465 22,500 -3,840 Descending Kansas City Center
11:36PM 37.9200 -96.9828 192° South 396 456 20,300 -3,120 Descending Kansas City Center
11:37PM 37.8361 -97.0561 215° Southwest 364 419 17,300 -3,000 Descending Kansas City Center
11:38PM 37.7578 -97.1272 216° Southwest 347 399 14,300 -3,360 Descending Kansas City Center
11:39PM 37.7331 -97.1514 218° Southwest 328 377 13,100 -3,060 Descending Kansas City Center
11:39PM 37.6886 -97.1947 218° Southwest 318 366 11,200 -2,460 Descending Kansas City Center
11:40PM 37.6292 -97.2575 220° Southwest 278 320 8,800 -2,700 Descending Kansas City Center
11:41PM 37.5733 -97.3161 220° Southwest 263 303 5,800 -2,760 Descending Kansas City Center
11:42PM 37.5139 -97.3750 218° Southwest 265 305 3,200 -1,380 Descending Kansas City Center
11:43PM 37.4614 -97.4344 222° Southwest 264 304 3,000 -240 Descending Kansas City Center